Time;durP1;ratioP1;P1;durP2;ratioP2;P2;SDS_P1;SDS_P2;PMS_P1;PMS_P2;Temp;Humidity;BMP_temperature;BMP_pressure;BME280_temperature;BME280_humidity;BME280_pressure;Samples;Min_cycle;Max_cycle;Signal;HPM_P1;HPM_P2
2022/12/17 13:07:36;;;;;;;131.07;41.53;;;;;;;;;;5093839;28;20085;-77
2022/12/17 13:10:03;;;;;;;137.90;43.47;;;;;;;;;;5076956;28;20640;-77
2022/12/17 13:12:46;;;;;;;143.02;43.63;;;2.30;99.90;;;;;;5076624;28;20040;-77
2022/12/17 13:15:21;;;;;;;131.63;44.63;;;2.40;99.90;;;;;;5093710;28;20040;-77
2022/12/17 13:18:06;;;;;;;131.82;44.78;;;;;;;;;;5093817;28;20097;-77
2022/12/17 13:20:33;;;;;;;148.98;44.80;;;2.50;99.90;;;;;;5093657;28;20492;-77
2022/12/17 13:23:08;;;;;;;134.20;44.10;;;;;;;;;;5093484;28;20044;-77
2022/12/17 13:25:35;;;;;;;132.23;44.42;;;;;;;;;;5093726;28;20032;-77
2022/12/17 13:28:01;;;;;;;135.88;45.08;;;;;;;;;;5094059;28;20032;-77
2022/12/17 13:30:37;;;;;;;134.95;44.97;;;;;;;;;;5076674;28;20095;-77
2022/12/17 13:33:03;;;;;;;131.00;42.38;;;;;;;;;;5093588;28;20044;-77
2022/12/17 13:35:48;;;;;;;139.75;44.53;;;;;;;;;;5093890;28;20059;-77
2022/12/17 13:38:14;;;;;;;141.40;45.58;;;;;;;;;;5076681;28;20051;-76
2022/12/17 13:40:40;;;;;;;145.73;45.35;;;;;;;;;;5093166;28;20052;-77
2022/12/17 13:43:14;;;;;;;139.30;44.40;;;;;;;;;;5093142;28;20404;-76
2022/12/17 13:45:42;;;;;;;140.23;45.67;;;2.30;99.90;;;;;;5093209;28;20605;-77
2022/12/17 13:48:18;;;;;;;129.55;45.22;;;;;;;;;;5093417;28;20040;-77
2022/12/17 13:50:55;;;;;;;149.85;46.22;;;2.30;99.90;;;;;;5093198;28;20047;-77
2022/12/17 13:53:21;;;;;;;141.60;46.38;;;;;;;;;;5093140;28;20074;-76
2022/12/17 13:55:51;;;;;;;150.80;44.80;;;;;;;;;;5076433;28;20048;-76
2022/12/17 13:58:23;;;;;;;162.70;48.58;;;;;;;;;;5076119;28;20075;-76
2022/12/17 14:00:50;;;;;;;143.52;46.60;;;;;;;;;;5076337;28;20072;-76
2022/12/17 14:03:19;;;;;;;157.93;47.42;;;;;;;;;;5092742;28;20403;-76
2022/12/17 14:05:45;;;;;;;144.10;45.10;;;;;;;;;;5075977;28;20044;-77
2022/12/17 14:08:15;;;;;;;137.30;45.80;;;;;;;;;;5076003;28;20036;-77
2022/12/17 14:10:50;;;;;;;145.93;44.92;;;1.90;99.90;;;;;;5092969;28;20083;-76
2022/12/17 14:13:17;;;;;;;149.23;45.35;;;;;;;;;;5093194;28;20040;-76
2022/12/17 14:15:51;;;;;;;141.82;44.63;;;1.70;99.90;;;;;;5092882;28;20036;-76
2022/12/17 14:18:19;;;;;;;157.52;46.92;;;1.90;99.90;;;;;;5093274;28;20499;-76
2022/12/17 14:20:46;;;;;;;139.55;45.15;;;1.80;99.90;;;;;;5092973;28;20052;-76
2022/12/17 14:23:17;;;;;;;142.77;46.78;;;;;;;;;;5092871;28;20040;-76
2022/12/17 14:25:48;;;;;;;163.35;47.55;;;;;;;;;;5092084;28;20399;-76
2022/12/17 14:28:31;;;;;;;147.50;46.10;;;;;;;;;;5092985;28;20071;-76
2022/12/17 14:31:09;;;;;;;154.85;47.83;;;;;;;;;;5075512;28;20040;-77
2022/12/17 14:33:36;;;;;;;156.32;48.53;;;;;;;;;;5092852;28;20407;-76
2022/12/17 14:36:08;;;;;;;156.35;47.88;;;1.50;99.90;;;;;;5092340;28;20546;-77
2022/12/17 14:38:35;;;;;;;148.50;47.00;;;;;;;;;;5092500;28;20043;-77
2022/12/17 14:42:24;;;;;;;155.55;48.25;;;;;;;;;;5059131;28;20044;-77
2022/12/17 14:43:54;;;;;;;158.40;48.00;;;;;;;;;;5092500;28;20064;-77
2022/12/17 14:46:22;;;;;;;162.43;47.70;;;;;;;;;;5092553;28;20067;-76
2022/12/17 14:49:01;;;;;;;168.18;49.03;;;;;;;;;;5092246;28;20043;-77
2022/12/17 14:51:30;;;;;;;145.10;48.97;;;;;;;;;;5092151;28;20067;-76
2022/12/17 14:54:14;;;;;;;170.52;48.28;;;1.10;99.90;;;;;;5092138;28;20044;-77
2022/12/17 14:56:41;;;;;;;159.27;47.45;;;1.20;99.90;;;;;;5092243;28;20047;-77
2022/12/17 14:59:36;;;;;;;166.30;46.53;;;1.00;99.90;;;;;;5075223;28;20044;-77
2022/12/17 15:02:11;;;;;;;168.18;49.67;;;;;;;;;;5092051;28;20040;-77
2022/12/17 15:04:38;;;;;;;179.93;49.67;;;;;;;;;;5091917;28;20074;-77
2022/12/17 15:07:05;;;;;;;168.30;49.28;;;1.00;99.90;;;;;;5092260;28;20032;-77
2022/12/17 15:09:37;;;;;;;161.70;48.03;;;;;;;;;;5058863;28;20035;-77
2022/12/17 15:12:04;;;;;;;176.45;49.83;;;;;;;;;;5091883;28;20036;-77
2022/12/17 15:14:30;;;;;;;169.60;47.88;;;;;;;;;;5075455;28;20176;-77
2022/12/17 15:16:57;;;;;;;175.23;49.13;;;;;;;;;;5091892;28;20044;-77
2022/12/17 15:19:23;;;;;;;172.40;50.03;;;;;;;;;;5075077;28;20036;-77
2022/12/17 15:21:50;;;;;;;177.88;50.88;;;;;;;;;;5075027;28;20180;-77
2022/12/17 15:24:18;;;;;;;175.70;49.38;;;;;;;;;;5092140;28;20084;-77
2022/12/17 15:26:44;;;;;;;172.30;48.53;;;;;;;;;;5075374;28;20059;-77
2022/12/17 15:29:11;;;;;;;176.70;51.25;;;;;;;;;;5092197;28;20464;-77
2022/12/17 15:31:37;;;;;;;187.55;51.30;;;;;;;;;;5091955;28;20127;-77
2022/12/17 15:34:03;;;;;;;181.02;49.70;;;;;;;;;;5075077;28;20048;-76
2022/12/17 15:36:33;;;;;;;171.27;49.40;;;;;;;;;;5077003;28;20047;-76
2022/12/17 15:38:59;;;;;;;167.00;50.50;;;;;;;;;;5095812;28;20476;-77
2022/12/17 15:44:09;;;;;;;175.75;49.30;;;;;;;;;;5081021;28;20391;-76
2022/12/17 15:46:35;;;;;;;167.85;49.90;;;;;;;;;;5078782;28;20044;-76
2022/12/17 15:49:02;;;;;;;175.85;49.25;;;;;;;;;;5095479;28;20444;-76
2022/12/17 15:51:28;;;;;;;166.43;46.70;;;;;;;;;;5095208;28;20040;-76
2022/12/17 15:53:54;;;;;;;171.60;49.22;;;;;;;;;;5095478;28;20063;-77
2022/12/17 15:56:25;;;;;;;175.30;49.55;;;;;;;;;;5078625;28;20040;-77
2022/12/17 15:58:51;;;;;;;176.27;51.65;;;;;;;;;;5078661;28;20040;-77
2022/12/17 16:01:18;;;;;;;159.82;47.10;;;0.50;99.90;;;;;;5095126;28;20036;-76
2022/12/17 16:03:44;;;;;;;160.57;48.13;;;;;;;;;;5095305;28;20480;-76
2022/12/17 16:06:10;;;;;;;177.35;49.50;;;;;;;;;;5095224;28;20040;-76
2022/12/17 16:08:37;;;;;;;172.88;48.40;;;0.60;99.90;;;;;;5078277;28;20039;-76
2022/12/17 16:11:08;;;;;;;178.65;50.92;;;;;;;;;;5078509;28;20085;-76
2022/12/17 16:13:34;;;;;;;171.27;50.85;;;;;;;;;;5095183;28;20047;-76
2022/12/17 16:16:00;;;;;;;174.50;48.58;;;;;;;;;;5095068;28;20083;-77
2022/12/17 16:18:26;;;;;;;172.50;47.83;;;;;;;;;;5095284;28;20398;-77
2022/12/17 16:20:52;;;;;;;170.77;48.22;;;;;;;;;;5078374;28;20036;-76
2022/12/17 16:23:19;;;;;;;171.95;49.03;;;0.40;99.90;;;;;;5095126;28;20114;-76
2022/12/17 16:25:45;;;;;;;173.35;50.13;;;;;;;;;;5077974;28;20472;-77
2022/12/17 16:28:11;;;;;;;171.38;48.80;;;;;;;;;;5078324;28;20380;-77
2022/12/17 16:30:37;;;;;;;172.82;49.60;;;;;;;;;;5094663;28;20032;-77
2022/12/17 16:33:03;;;;;;;178.52;48.90;;;;;;;;;;5077873;28;20134;-78
2022/12/17 16:35:29;;;;;;;173.00;48.58;;;;;;;;;;5095029;28;20040;-78
2022/12/17 16:37:55;;;;;;;181.40;49.03;;;;;;;;;;5094717;28;20127;-78
2022/12/17 16:40:21;;;;;;;166.90;48.72;;;;;;;;;;5094511;28;20044;-78
2022/12/17 16:42:47;;;;;;;172.65;49.08;;;;;;;;;;5077580;28;20479;-78
2022/12/17 16:45:13;;;;;;;174.48;48.53;;;;;;;;;;5094373;28;20048;-77
2022/12/17 16:47:39;;;;;;;176.88;51.83;;;;;;;;;;5060446;28;20097;-78
2022/12/17 16:50:05;;;;;;;173.13;50.90;;;;;;;;;;5096745;28;20055;-78
2022/12/17 16:52:32;;;;;;;182.80;50.35;;;;;;;;;;5077528;28;20067;-78
2022/12/17 16:54:58;;;;;;;178.82;50.22;;;;;;;;;;5060850;28;20044;-78
2022/12/17 16:57:24;;;;;;;169.20;46.20;;;;;;;;;;5094277;28;20040;-78
2022/12/17 16:59:51;;;;;;;189.85;51.55;;;;;;;;;;5094194;28;20032;-78
2022/12/17 17:02:17;;;;;;;185.70;52.47;;;;;;;;;;5094175;28;20040;-77
2022/12/17 17:04:43;;;;;;;177.95;50.80;;;;;;;;;;5094123;28;20151;-78
2022/12/17 17:07:09;;;;;;;170.85;50.63;;;;;;;;;;5060824;28;20038;-78
2022/12/17 17:09:35;;;;;;;185.75;51.45;;;;;;;;;;5077214;28;20032;-78
2022/12/17 17:12:01;;;;;;;166.82;46.65;;;;;;;;;;5094279;28;20040;-78
2022/12/17 17:14:27;;;;;;;161.73;46.22;;;;;;;;;;5077262;28;20040;-77
2022/12/17 17:16:53;;;;;;;165.52;48.92;;;;;;;;;;5077007;28;20093;-77
2022/12/17 17:19:19;;;;;;;168.98;48.42;;;;;;;;;;5093834;28;20499;-77
2022/12/17 17:21:50;;;;;;;162.02;45.90;;;;;;;;;;5076878;28;20047;-77
2022/12/17 17:24:19;;;;;;;167.57;48.28;;;;;;;;;;5076516;28;20043;-77
2022/12/17 17:26:46;;;;;;;180.07;49.97;;;;;;;;;;5093601;28;20046;-77
2022/12/17 17:29:12;;;;;;;167.00;47.78;;;;;;;;;;5077007;28;20062;-77
2022/12/17 17:31:38;;;;;;;171.85;47.45;;;;;;;;;;5076446;28;20050;-76
2022/12/17 17:34:09;;;;;;;179.98;47.92;;;-0.20;99.90;;;;;;5076441;28;20043;-76
2022/12/17 17:36:35;;;;;;;163.13;47.35;;;-0.10;99.90;;;;;;5093529;28;20457;-76
2022/12/17 17:39:02;;;;;;;165.02;49.65;;;;;;;;;;5093413;28;20128;-76
2022/12/17 17:41:29;;;;;;;186.35;48.10;;;-0.40;99.90;;;;;;5076444;28;20130;-76
2022/12/17 17:43:57;;;;;;;167.77;48.22;;;;;;;;;;5059835;28;20101;-76
2022/12/17 17:46:23;;;;;;;173.23;47.08;;;;;;;;;;5093395;28;20047;-76
2022/12/17 17:48:50;;;;;;;184.98;48.97;;;;;;;;;;5076363;28;20093;-76
2022/12/17 17:51:17;;;;;;;171.27;47.30;;;;;;;;;;5093379;28;20038;-76
2022/12/17 17:53:43;;;;;;;183.15;48.78;;;;;;;;;;5093174;28;20123;-77
2022/12/17 17:56:16;;;;;;;171.20;45.83;;;-0.20;99.90;;;;;;5093356;28;20081;-76
2022/12/17 17:58:43;;;;;;;184.48;48.58;;;;;;;;;;5093215;28;20377;-76
2022/12/17 18:01:10;;;;;;;164.68;47.22;;;;;;;;;;5092330;28;20043;-76
2022/12/17 18:03:36;;;;;;;172.50;48.45;;;;;;;;;;5093148;28;20040;-77
2022/12/17 18:06:06;;;;;;;162.32;48.30;;;;;;;;;;5076181;28;20039;-77
2022/12/17 18:08:34;;;;;;;183.10;49.30;;;;;;;;;;5093162;28;20093;-77
2022/12/17 18:11:02;;;;;;;171.27;48.47;;;-0.30;99.90;;;;;;5093278;28;20379;-77
2022/12/17 18:16:13;;;;;;;177.02;48.58;;;;;;;;;;5092903;28;20052;-76
2022/12/17 18:18:39;;;;;;;186.00;49.28;;;;;;;;;;5093009;28;20095;-77
2022/12/17 18:21:08;;;;;;;182.60;49.60;;;-0.30;99.90;;;;;;5092556;28;20047;-77
2022/12/17 18:23:34;;;;;;;182.70;50.38;;;;;;;;;;5092575;28;20040;-76
2022/12/17 18:26:06;;;;;;;176.15;48.58;;;;;;;;;;5092347;28;20085;-77
2022/12/17 18:28:32;;;;;;;179.88;48.15;;;;;;;;;;5075516;28;20028;-77
2022/12/17 18:30:58;;;;;;;180.02;48.92;;;;;;;;;;5105695;28;20040;-77
2022/12/17 18:33:24;;;;;;;180.40;50.10;;;;;;;;;;5079036;28;20050;-76
2022/12/17 18:35:50;;;;;;;181.73;50.72;;;;;;;;;;5076588;28;20446;-77
2022/12/17 18:38:17;;;;;;;184.60;49.30;;;;;;;;;;5092274;28;20127;-76
2022/12/17 18:40:43;;;;;;;175.05;47.53;;;;;;;;;;5086524;28;20509;-76
2022/12/17 18:43:24;;;;;;;167.98;47.55;;;;;;;;;;5112432;28;20475;-77
2022/12/17 18:45:51;;;;;;;176.98;48.45;;;;;;;;;;5095652;28;20092;-77
2022/12/17 18:48:19;;;;;;;180.57;49.10;;;;;;;;;;5110776;28;20433;-78
2022/12/17 18:50:45;;;;;;;177.25;49.70;;;;;;;;;;5112615;28;20063;-77
2022/12/17 18:53:11;;;;;;;178.70;48.85;;;;;;;;;;5095932;28;20043;-77
2022/12/17 18:55:40;;;;;;;165.45;48.10;;;;;;;;;;5100028;28;20044;-77
2022/12/17 18:58:08;;;;;;;183.85;48.50;;;;;;;;;;5058863;28;20061;-77
2022/12/17 19:00:37;;;;;;;175.80;47.58;;;;;;;;;;5076227;28;20132;-77
2022/12/17 19:03:04;;;;;;;195.95;49.63;;;;;;;;;;5093185;28;20483;-77
2022/12/17 19:05:32;;;;;;;178.00;48.55;;;;;;;;;;5080201;28;20495;-76
2022/12/17 19:08:02;;;;;;;169.68;46.22;;;;;;;;;;5107628;28;20192;-78
2022/12/17 19:10:28;;;;;;;172.00;48.50;;;;;;;;;;5075857;28;20135;-77
2022/12/17 19:12:57;;;;;;;181.57;49.25;;;;;;;;;;5116565;28;20037;-77
2022/12/17 19:15:23;;;;;;;178.93;49.33;;;;;;;;;;5083898;28;20047;-79
2022/12/17 19:17:52;;;;;;;186.15;48.28;;;;;;;;;;5066479;28;20119;-78
2022/12/17 19:20:18;;;;;;;187.65;49.85;;;;;;;;;;5073646;28;20467;-77
2022/12/17 19:22:44;;;;;;;189.10;51.25;;;;;;;;;;5079382;28;20067;-77
2022/12/17 19:25:11;;;;;;;189.13;52.22;;;;;;;;;;5079549;28;20044;-77
2022/12/17 19:27:37;;;;;;;185.50;51.53;;;;;;;;;;5079533;28;20074;-78
2022/12/17 19:30:04;;;;;;;176.90;47.22;;;;;;;;;;5079297;28;20081;-77
2022/12/17 19:32:30;;;;;;;181.48;48.78;;;;;;;;;;5079678;28;20039;-78
2022/12/17 19:34:56;;;;;;;177.50;47.95;;;;;;;;;;5079612;28;20036;-77
2022/12/17 19:37:25;;;;;;;181.27;49.45;;;;;;;;;;5079176;28;20491;-79
2022/12/17 19:39:51;;;;;;;185.52;47.55;;;;;;;;;;5059801;28;20376;-77
2022/12/17 19:42:24;;;;;;;187.20;48.88;;;;;;;;;;5070923;28;20044;-76
2022/12/17 19:44:54;;;;;;;185.85;48.30;;;;;;;;;;5098090;28;20052;-76
2022/12/17 19:47:21;;;;;;;177.13;46.22;;;;;;;;;;5104149;28;20475;-76
2022/12/17 19:49:47;;;;;;;178.70;47.40;;;;;;;;;;5108093;28;20040;-76
2022/12/17 19:52:14;;;;;;;189.40;49.65;;;;;;;;;;5097144;28;20040;-77
2022/12/17 19:54:40;;;;;;;194.77;49.30;;;;;;;;;;5097401;28;20460;-77
2022/12/17 19:57:09;;;;;;;184.15;45.22;;;;;;;;;;5096815;28;20178;-77
2022/12/17 19:59:35;;;;;;;199.10;50.20;;;;;;;;;;5062590;28;20036;-77
2022/12/17 20:02:02;;;;;;;173.45;47.75;;;;;;;;;;5083473;28;20504;-77
2022/12/17 20:04:29;;;;;;;190.93;49.60;;;;;;;;;;5077669;28;20059;-77
2022/12/17 20:06:56;;;;;;;204.50;49.35;;;;;;;;;;5080408;28;20033;-76
2022/12/17 20:09:22;;;;;;;188.00;49.83;;;;;;;;;;5112477;28;20043;-76
2022/12/17 20:11:48;;;;;;;197.00;51.20;;;;;;;;;;5072145;28;20031;-77
2022/12/17 20:14:22;;;;;;;208.73;53.80;;;;;;;;;;5078431;28;20047;-77
2022/12/17 20:16:50;;;;;;;196.75;46.92;;;;;;;;;;5095582;28;20043;-77
2022/12/17 20:19:18;;;;;;;195.63;47.70;;;;;;;;;;5078887;28;20058;-77
2022/12/17 20:21:44;;;;;;;190.18;49.42;;;;;;;;;;5097332;28;20043;-76
2022/12/17 20:24:11;;;;;;;210.65;49.80;;;;;;;;;;5095054;28;20454;-77
2022/12/17 20:26:38;;;;;;;187.65;49.38;;;;;;;;;;5094991;28;20052;-77
2022/12/17 20:29:05;;;;;;;183.23;48.33;;;;;;;;;;5079504;28;20036;-77
2022/12/17 20:31:35;;;;;;;208.32;49.17;;;;;;;;;;5102306;28;20042;-76
2022/12/17 20:34:02;;;;;;;191.35;48.22;;;;;;;;;;5107084;28;20064;-77
2022/12/17 20:36:35;;;;;;;192.02;48.30;;;;;;;;;;5097852;28;20500;-77
2022/12/17 20:39:01;;;;;;;187.02;47.55;;;;;;;;;;5085028;28;20116;-77
2022/12/17 20:41:31;;;;;;;176.13;46.08;;;;;;;;;;5078699;28;20039;-76
2022/12/17 20:44:00;;;;;;;194.43;47.28;;;;;;;;;;5105460;28;20056;-76
2022/12/17 20:46:27;;;;;;;202.77;47.88;;;;;;;;;;5080230;28;20032;-77
2022/12/17 20:48:54;;;;;;;189.52;46.65;;;;;;;;;;5070323;28;20054;-76
2022/12/17 20:51:22;;;;;;;185.80;46.15;;;;;;;;;;5097563;28;20040;-76
2022/12/17 20:53:48;;;;;;;188.00;47.67;;;;;;;;;;5078598;28;20036;-77
2022/12/17 20:56:16;;;;;;;196.18;46.25;;;;;;;;;;5093168;28;20040;-76
2022/12/17 20:58:42;;;;;;;197.10;48.00;;;;;;;;;;5094723;28;20483;-76
2022/12/17 21:01:17;;;;;;;182.82;45.15;;;;;;;;;;5082302;28;20040;-76
2022/12/17 21:03:43;;;;;;;182.05;47.33;;;;;;;;;;5077964;28;20047;-77
2022/12/17 21:06:14;;;;;;;183.32;44.30;;;;;;;;;;5095406;28;20071;-76
2022/12/17 21:08:41;;;;;;;184.32;46.50;;;;;;;;;;5111908;28;20050;-76
2022/12/17 21:11:08;;;;;;;181.30;45.05;;;;;;;;;;5077013;28;20514;-77
2022/12/17 21:13:35;;;;;;;188.98;47.17;;;;;;;;;;5111308;28;20449;-76
2022/12/17 21:16:03;;;;;;;193.68;47.38;;;;;;;;;;5071866;28;20040;-76
2022/12/17 21:18:30;;;;;;;209.23;49.58;;;;;;;;;;5077403;28;20054;-77
2022/12/17 21:21:01;;;;;;;185.23;47.33;;;;;;;;;;5083150;28;20105;-76
2022/12/17 21:23:27;;;;;;;199.70;47.65;;;;;;;;;;5094153;28;20047;-76
2022/12/17 21:25:58;;;;;;;194.82;46.88;;;;;;;;;;5097283;28;20043;-77
2022/12/17 21:28:24;;;;;;;192.20;47.35;;;;;;;;;;5077604;28;20104;-77
2022/12/17 21:30:53;;;;;;;182.25;45.05;;;;;;;;;;5080641;28;20115;-78
2022/12/17 21:33:19;;;;;;;178.38;44.10;;;;;;;;;;5060349;28;20036;-77
2022/12/17 21:35:45;;;;;;;201.90;46.08;;;;;;;;;;5060945;28;20044;-77
2022/12/17 21:38:12;;;;;;;189.15;45.35;;;;;;;;;;5093759;28;20114;-77
2022/12/17 21:40:38;;;;;;;190.75;47.58;;;;;;;;;;5061633;28;20062;-78
2022/12/17 21:43:04;;;;;;;195.95;47.35;;;;;;;;;;5078059;28;20487;-78
2022/12/17 21:45:36;;;;;;;189.40;46.58;;;;;;;;;;5069451;28;20123;-77
2022/12/17 21:48:02;;;;;;;181.02;45.83;;;;;;;;;;5076273;28;20039;-77
2022/12/17 21:50:28;;;;;;;200.88;47.80;;;;;;;;;;5083197;28;20386;-77
2022/12/17 21:52:54;;;;;;;182.43;46.58;;;;;;;;;;5096396;27;20440;-78
2022/12/17 21:55:21;;;;;;;178.95;44.58;;;;;;;;;;5107411;28;20035;-78
2022/12/17 21:57:47;;;;;;;179.73;46.38;;;;;;;;;;5113549;28;20071;-77
2022/12/17 22:00:14;;;;;;;182.13;46.55;;;;;;;;;;5076179;28;20499;-77
2022/12/17 22:02:46;;;;;;;189.93;46.75;;;;;;;;;;5097793;28;20510;-77
2022/12/17 22:05:14;;;;;;;188.32;45.92;;;;;;;;;;5092588;28;20029;-77
2022/12/17 22:07:40;;;;;;;176.93;44.78;;;;;;;;;;5079245;28;20046;-78
2022/12/17 22:10:07;;;;;;;178.85;46.58;;;;;;;;;;5110500;28;20046;-77
2022/12/17 22:15:18;;;;;;;188.65;46.13;;;;;;;;;;5104509;28;20036;-77
2022/12/17 22:17:44;;;;;;;190.32;46.72;;;;;;;;;;5110851;28;20479;-77
2022/12/17 22:20:11;;;;;;;179.88;46.42;;;;;;;;;;5094438;28;20043;-77
2022/12/17 22:22:37;;;;;;;180.77;48.25;;;;;;;;;;5093216;28;20039;-72
2022/12/17 22:25:04;;;;;;;187.35;46.55;;;;;;;;;;5094851;28;20502;-76
2022/12/17 22:27:30;;;;;;;187.18;47.90;;;;;;;;;;5079912;28;20119;-76
2022/12/17 22:32:59;;;;;;;174.75;45.15;;;;;;;;;;5107160;28;20088;-76
2022/12/17 22:35:43;;;;;;;199.13;49.17;;;;;;;;;;5095617;28;20036;-76
2022/12/17 22:38:09;;;;;;;164.70;46.33;;;;;;;;;;5109923;28;20506;-76
2022/12/17 22:40:36;;;;;;;183.48;49.03;;;;;;;;;;5092716;28;20118;-76
2022/12/17 22:45:47;;;;;;;171.73;45.92;;;;;;;;;;5098079;28;20191;-76
2022/12/17 22:48:14;;;;;;;179.00;47.20;;;;;;;;;;5080023;28;20039;-76
2022/12/17 22:50:40;;;;;;;183.27;47.50;;;;;;;;;;5092121;28;20047;-76
2022/12/17 22:53:07;;;;;;;182.98;45.17;;;;;;;;;;5105404;28;20040;-76
2022/12/17 22:55:33;;;;;;;183.40;45.83;;;;;;;;;;5095605;28;20040;-76
2022/12/17 22:57:59;;;;;;;165.45;45.72;;;;;;;;;;5101560;28;20093;-76
2022/12/17 23:00:29;;;;;;;185.10;48.22;;;;;;;;;;5092510;28;20071;-76
2022/12/17 23:02:55;;;;;;;176.60;45.97;;;;;;;;;;5101183;28;20050;-76
2022/12/17 23:05:22;;;;;;;166.52;44.40;;;-1.60;99.90;;;;;;5095631;28;20039;-77
2022/12/17 23:07:48;;;;;;;165.20;45.58;;;;;;;;;;5105309;28;20040;-76
2022/12/17 23:10:15;;;;;;;171.45;46.55;;;;;;;;;;5081528;28;20035;-76
2022/12/17 23:12:50;;;;;;;174.48;46.67;;;;;;;;;;5106941;28;20130;-76
2022/12/17 23:15:27;;;;;;;165.52;43.80;;;;;;;;;;5092083;28;20036;-76
2022/12/17 23:17:55;;;;;;;184.15;45.67;;;-1.80;99.90;;;;;;5076836;28;20126;-76
2022/12/17 23:20:21;;;;;;;179.40;45.30;;;;;;;;;;5092312;28;20044;-76
2022/12/17 23:22:47;;;;;;;193.77;45.50;;;;;;;;;;5095228;28;20040;-74
2022/12/17 23:25:14;;;;;;;173.40;46.60;;;-1.70;99.90;;;;;;5095163;28;20058;-74
2022/12/17 23:27:41;;;;;;;173.63;44.70;;;;;;;;;;5110849;28;20062;-75
2022/12/17 23:30:07;;;;;;;184.18;48.88;;;;;;;;;;5091421;28;20040;-75
2022/12/17 23:32:34;;;;;;;187.88;44.65;;;;;;;;;;5089777;28;20040;-75
2022/12/17 23:35:00;;;;;;;175.73;46.97;;;;;;;;;;5108938;28;20130;-76
2022/12/17 23:37:26;;;;;;;178.75;45.75;;;;;;;;;;5110326;28;20088;-76
2022/12/17 23:39:52;;;;;;;172.63;46.70;;;;;;;;;;5096184;28;20483;-76
2022/12/17 23:42:18;;;;;;;168.02;47.17;;;;;;;;;;5112371;28;20437;-76
2022/12/17 23:44:44;;;;;;;202.00;47.88;;;;;;;;;;5079798;28;20052;-76
2022/12/17 23:47:10;;;;;;;177.35;46.65;;;;;;;;;;5074875;28;20365;-76
2022/12/17 23:49:37;;;;;;;175.45;44.35;;;;;;;;;;5095530;28;20036;-76
2022/12/17 23:52:03;;;;;;;187.07;47.00;;;;;;;;;;5091614;28;20119;-76
2022/12/17 23:54:29;;;;;;;181.00;45.70;;;;;;;;;;5101571;28;20127;-76
2022/12/17 23:56:55;;;;;;;173.13;44.70;;;;;;;;;;5113029;28;20035;-76
2022/12/17 23:59:21;;;;;;;180.65;45.70;;;;;;;;;;5092687;28;20070;-76
